createdAt,value
2022-08-18T00:02:28.858Z,23.02
2022-08-18T00:04:57.813Z,22.95
2022-08-18T00:07:30.859Z,22.87
2022-08-18T00:10:00.142Z,22.93
2022-08-18T00:12:33.346Z,22.94
2022-08-18T00:15:05.703Z,22.89
2022-08-18T00:17:35.408Z,22.85
2022-08-18T00:20:06.102Z,22.91
2022-08-18T00:22:33.816Z,22.81
2022-08-18T00:25:01.408Z,22.74
2022-08-18T00:27:31.625Z,22.86
2022-08-18T00:30:02.271Z,22.92
2022-08-18T00:32:40.673Z,22.97
2022-08-18T00:35:08.257Z,22.98
2022-08-18T00:37:36.958Z,22.87
2022-08-18T00:40:07.064Z,22.77
2022-08-18T00:42:40.573Z,22.85
2022-08-18T00:45:08.683Z,22.79
2022-08-18T00:47:42.304Z,22.77
2022-08-18T00:50:18.046Z,22.77
2022-08-18T00:52:50.068Z,22.76
2022-08-18T00:55:19.596Z,22.73
2022-08-18T00:57:50.455Z,22.69
2022-08-18T01:00:18.279Z,22.64
2022-08-18T01:02:50.981Z,22.54
2022-08-18T01:05:22.253Z,22.55
2022-08-18T01:07:50.445Z,22.47
2022-08-18T01:10:21.075Z,22.39
2022-08-18T01:12:54.310Z,22.29
2022-08-18T01:15:29.308Z,22.25
2022-08-18T01:18:21.898Z,22.16
2022-08-18T01:21:20.413Z,22.03
2022-08-18T01:23:49.478Z,22.05
2022-08-18T01:26:18.574Z,21.97
2022-08-18T01:28:47.299Z,22.06
2022-08-18T01:31:32.694Z,21.81
2022-08-18T01:34:01.283Z,21.90
2022-08-18T01:36:29.634Z,21.95
2022-08-18T01:38:57.239Z,21.95
2022-08-18T01:41:30.538Z,21.97
2022-08-18T01:44:00.084Z,21.97
2022-08-18T01:46:29.665Z,21.97
2022-08-18T01:48:59.629Z,22.06
2022-08-18T01:51:39.315Z,21.98
2022-08-18T01:54:12.429Z,21.92
2022-08-18T01:56:42.381Z,21.95
2022-08-18T01:59:13.761Z,21.92
2022-08-18T02:01:48.472Z,21.82
2022-08-18T02:04:34.999Z,21.89
2022-08-18T02:07:07.840Z,21.92
2022-08-18T02:09:37.664Z,21.90
2022-08-18T02:12:07.354Z,21.86
2022-08-18T02:14:36.054Z,21.81
2022-08-18T02:17:06.045Z,21.91
2022-08-18T02:19:39.036Z,21.84
2022-08-18T02:22:09.438Z,21.79
2022-08-18T02:24:37.460Z,21.68
2022-08-18T02:27:06.797Z,21.56
2022-08-18T02:29:34.807Z,21.48
2022-08-18T02:32:01.968Z,21.41
2022-08-18T02:34:29.045Z,21.39
2022-08-18T02:36:56.234Z,21.35
2022-08-18T02:39:23.503Z,21.30
2022-08-18T02:41:51.666Z,21.24
2022-08-18T02:44:18.993Z,21.10
2022-08-18T02:46:46.453Z,20.98
2022-08-18T02:49:13.753Z,21.09
2022-08-18T02:51:40.842Z,21.04
2022-08-18T02:54:11.331Z,20.99
2022-08-18T02:56:41.048Z,21.06
2022-08-18T02:59:12.964Z,20.91
2022-08-18T03:01:44.943Z,20.98
2022-08-18T03:04:16.067Z,21.06
2022-08-18T03:06:44.343Z,21.11
2022-08-18T03:09:15.549Z,21.14
2022-08-18T03:11:43.809Z,21.02
2022-08-18T03:14:11.887Z,21.17
2022-08-18T03:16:53.737Z,21.20
2022-08-18T03:19:30.075Z,21.19
2022-08-18T03:22:02.974Z,20.97
2022-08-18T03:24:32.522Z,21.18
2022-08-18T03:27:01.754Z,21.23
2022-08-18T03:29:32.478Z,21.20
2022-08-18T03:32:02.748Z,21.09
2022-08-18T03:34:30.862Z,21.21
2022-08-18T03:36:58.284Z,21.28
2022-08-18T03:39:28.059Z,21.27
2022-08-18T03:41:59.978Z,21.28
2022-08-18T03:44:34.410Z,21.25
2022-08-18T03:47:04.894Z,21.28
2022-08-18T03:49:33.785Z,21.31
2022-08-18T03:52:01.761Z,21.41
2022-08-18T03:54:32.327Z,21.46
2022-08-18T03:57:00.582Z,21.47
2022-08-18T03:59:28.603Z,21.58
2022-08-18T04:01:56.242Z,21.61
2022-08-18T04:04:26.528Z,21.68
2022-08-18T04:07:05.753Z,21.73
2022-08-18T04:09:35.655Z,21.76
2022-08-18T04:12:16.204Z,21.63
2022-08-18T04:14:48.427Z,21.85
2022-08-18T04:17:23.933Z,21.91
2022-08-18T04:19:53.618Z,21.97
2022-08-18T04:22:21.542Z,22.21
2022-08-18T04:24:50.316Z,22.42
2022-08-18T04:27:19.609Z,22.55
2022-08-18T04:29:47.843Z,22.56
2022-08-18T04:32:15.576Z,22.53
2022-08-18T04:34:42.997Z,22.55
2022-08-18T04:37:11.002Z,22.59
2022-08-18T04:39:38.618Z,22.77
2022-08-18T04:42:06.238Z,22.96
2022-08-18T04:44:35.610Z,23.10
2022-08-18T04:47:02.760Z,23.19
2022-08-18T04:49:32.193Z,23.24
2022-08-18T04:52:22.611Z,23.13
2022-08-18T04:55:05.824Z,23.12
2022-08-18T04:57:35.142Z,23.17
2022-08-18T05:00:07.630Z,23.21
2022-08-18T05:02:35.170Z,23.30
2022-08-18T05:05:04.302Z,23.43
2022-08-18T05:07:32.534Z,23.54
2022-08-18T05:09:59.891Z,23.54
2022-08-18T05:12:27.390Z,23.71
2022-08-18T05:14:57.527Z,23.82
2022-08-18T05:17:30.247Z,23.89
2022-08-18T05:20:01.542Z,24.03
2022-08-18T05:22:39.171Z,24.07
2022-08-18T05:25:08.595Z,24.23
2022-08-18T05:27:40.480Z,24.28
2022-08-18T05:30:09.394Z,24.36
2022-08-18T05:32:48.704Z,24.39
2022-08-18T05:35:31.312Z,24.41
2022-08-18T05:38:07.326Z,24.39
2022-08-18T05:40:35.223Z,24.54
2022-08-18T05:43:05.023Z,24.68
2022-08-18T05:45:34.967Z,24.75
2022-08-18T05:48:02.440Z,24.88
2022-08-18T05:50:34.353Z,24.98
2022-08-18T05:53:13.923Z,25.10
2022-08-18T05:55:59.915Z,25.23
2022-08-18T05:58:39.804Z,25.30
2022-08-18T06:01:27.268Z,25.37
2022-08-18T06:04:07.532Z,25.51
2022-08-18T06:06:37.309Z,25.63
2022-08-18T06:09:29.150Z,25.75
2022-08-18T06:12:09.667Z,25.85
2022-08-18T06:14:40.048Z,25.99
2022-08-18T06:17:11.428Z,26.06
2022-08-18T06:19:45.392Z,26.07
2022-08-18T06:22:37.090Z,26.22
2022-08-18T06:25:30.711Z,26.34
2022-08-18T06:28:14.265Z,26.43
2022-08-18T06:30:57.278Z,26.50
2022-08-18T06:33:43.035Z,26.68
2022-08-18T06:36:24.823Z,26.76
2022-08-18T06:39:23.870Z,26.85
2022-08-18T06:41:53.857Z,26.99
2022-08-18T06:44:21.315Z,27.15
2022-08-18T06:47:27.376Z,27.23
2022-08-18T06:50:16.210Z,27.36
2022-08-18T06:53:07.416Z,27.52
2022-08-18T06:55:58.828Z,27.65
2022-08-18T06:58:36.564Z,27.82
2022-08-18T07:01:08.168Z,27.93
2022-08-18T07:03:55.048Z,28.01
2022-08-18T07:06:22.434Z,28.11
2022-08-18T07:08:54.631Z,28.18
2022-08-18T07:11:29.946Z,28.23
2022-08-18T07:14:17.200Z,28.35
2022-08-18T07:16:58.371Z,28.46
2022-08-18T07:19:30.004Z,28.54
2022-08-18T07:22:18.963Z,28.68
2022-08-18T07:24:49.437Z,28.59
2022-08-18T07:27:17.665Z,28.91
2022-08-18T07:30:09.470Z,29.00
2022-08-18T07:32:47.706Z,29.11
2022-08-18T07:35:24.497Z,29.20
2022-08-18T07:38:41.593Z,29.18
2022-08-18T07:41:14.311Z,29.36
2022-08-18T07:43:52.008Z,29.52
2022-08-18T07:46:26.766Z,29.54
2022-08-18T07:48:54.315Z,29.54
2022-08-18T07:51:54.726Z,29.66
2022-08-18T07:54:52.532Z,29.82
2022-08-18T07:57:42.082Z,29.97
2022-08-18T08:03:32.523Z,29.93
2022-08-18T08:06:30.250Z,29.99
2022-08-18T08:09:48.387Z,30.01
2022-08-18T08:12:31.360Z,29.96
2022-08-18T08:15:10.003Z,30.04
2022-08-18T08:17:55.953Z,30.12
2022-08-18T08:20:50.850Z,30.29
2022-08-18T08:23:49.807Z,30.39
2022-08-18T08:26:41.328Z,30.51
2022-08-18T08:29:45.525Z,30.58
2022-08-18T08:32:29.321Z,30.54
2022-08-18T08:35:06.675Z,30.74
2022-08-18T08:37:39.564Z,30.87
2022-08-18T08:40:32.623Z,30.94
2022-08-18T08:43:19.788Z,30.96
2022-08-18T08:46:02.543Z,31.04
2022-08-18T08:48:33.120Z,31.08
2022-08-18T08:51:36.169Z,31.20
2022-08-18T08:54:27.468Z,31.26
2022-08-18T08:56:59.234Z,31.29
2022-08-18T08:59:26.569Z,31.30
2022-08-18T09:02:32.311Z,31.35
2022-08-18T09:05:24.344Z,31.14
2022-08-18T09:07:59.139Z,31.29
2022-08-18T09:10:41.589Z,31.44
2022-08-18T09:13:48.808Z,31.44
2022-08-18T09:16:16.149Z,31.50
2022-08-18T09:18:59.472Z,31.45
2022-08-18T09:21:44.798Z,31.52
2022-08-18T09:24:24.387Z,31.56
2022-08-18T09:26:54.394Z,31.75
2022-08-18T09:29:46.759Z,31.55
2022-08-18T09:32:22.951Z,31.69
2022-08-18T09:35:09.817Z,31.72
2022-08-18T09:37:43.529Z,31.84
2022-08-18T09:41:02.592Z,31.84
2022-08-18T09:44:17.950Z,32.02
2022-08-18T09:46:51.070Z,32.07
2022-08-18T09:49:27.680Z,32.11
2022-08-18T09:51:58.616Z,32.20
2022-08-18T09:54:42.061Z,32.20
2022-08-18T09:57:10.061Z,32.20
2022-08-18T09:59:37.491Z,32.11
2022-08-18T10:02:14.168Z,31.98
2022-08-18T10:04:51.342Z,31.84
2022-08-18T10:07:38.784Z,31.77
2022-08-18T10:10:56.968Z,31.96
2022-08-18T10:13:08.435Z,32.16
2022-08-18T10:15:58.607Z,32.25
2022-08-18T10:18:53.242Z,32.10
2022-08-18T10:21:31.145Z,32.06
2022-08-18T10:26:54.514Z,31.88
2022-08-18T10:29:28.993Z,31.73
2022-08-18T10:31:59.800Z,31.68
2022-08-18T10:34:52.521Z,31.66
2022-08-18T10:37:31.666Z,31.76
2022-08-18T10:40:13.543Z,31.95
2022-08-18T10:42:49.688Z,31.65
2022-08-18T10:45:31.763Z,31.60
2022-08-18T10:51:21.590Z,31.65
2022-08-18T10:54:12.228Z,31.92
2022-08-18T10:56:54.627Z,32.15
2022-08-18T10:59:49.078Z,32.52
2022-08-18T11:02:19.772Z,32.59
2022-08-18T11:04:58.956Z,32.51
2022-08-18T11:07:33.903Z,32.57
2022-08-18T11:13:29.561Z,32.66
2022-08-18T11:16:13.649Z,32.53
2022-08-18T11:18:45.959Z,32.47
2022-08-18T11:21:43.755Z,32.43
2022-08-18T11:24:16.153Z,32.38
2022-08-18T11:27:20.934Z,32.24
2022-08-18T11:29:51.893Z,32.34
2022-08-18T11:32:31.665Z,32.33
2022-08-18T11:34:59.675Z,32.56
2022-08-18T11:37:51.294Z,32.75
2022-08-18T11:41:08.581Z,32.83
2022-08-18T11:43:21.696Z,32.91
2022-08-18T11:45:58.405Z,32.88
2022-08-18T11:48:39.022Z,32.94
2022-08-18T11:51:17.587Z,33.22
2022-08-18T11:54:01.800Z,33.39
2022-08-18T11:56:32.361Z,33.57
2022-08-18T11:59:52.794Z,33.49
2022-08-18T12:02:21.146Z,33.46
2022-08-18T12:04:56.963Z,33.29
2022-08-18T12:07:34.026Z,33.21
2022-08-18T12:10:26.129Z,33.45
2022-08-18T12:13:00.700Z,33.32
2022-08-18T12:15:43.631Z,33.20
2022-08-18T12:18:28.459Z,33.05
2022-08-18T12:20:59.035Z,33.07
2022-08-18T12:26:38.062Z,33.37
2022-08-18T12:29:08.890Z,33.40
2022-08-18T12:31:55.338Z,33.43
2022-08-18T12:34:28.954Z,33.59
2022-08-18T12:37:01.376Z,33.84
2022-08-18T12:39:32.342Z,33.90
2022-08-18T12:41:59.755Z,33.63
2022-08-18T12:44:28.325Z,33.44
2022-08-18T12:46:56.081Z,33.36
2022-08-18T12:49:25.120Z,33.35
2022-08-18T12:51:55.757Z,33.46
2022-08-18T12:54:25.169Z,33.58
2022-08-18T12:56:55.776Z,33.48
2022-08-18T12:59:24.862Z,33.53
2022-08-18T13:01:58.605Z,33.66
2022-08-18T13:04:27.403Z,33.61
2022-08-18T13:07:00.604Z,33.60
2022-08-18T13:09:35.183Z,33.61
2022-08-18T13:12:16.606Z,33.85
2022-08-18T13:14:45.442Z,34.01
2022-08-18T13:17:32.403Z,33.90
2022-08-18T13:20:13.954Z,33.97
2022-08-18T13:22:41.833Z,34.06
2022-08-18T13:25:32.495Z,34.15
2022-08-18T13:28:02.038Z,34.10
2022-08-18T13:30:32.315Z,34.22
2022-08-18T13:33:05.533Z,34.24
2022-08-18T13:35:54.039Z,34.18
2022-08-18T13:38:27.403Z,34.20
2022-08-18T13:41:00.806Z,34.25
2022-08-18T13:43:32.305Z,34.34
2022-08-18T13:46:03.054Z,34.37
2022-08-18T13:48:32.077Z,34.48
2022-08-18T13:51:01.757Z,34.54
2022-08-18T13:53:31.599Z,34.67
2022-08-18T13:55:59.467Z,34.76
2022-08-18T13:58:28.782Z,34.54
2022-08-18T14:01:22.634Z,34.62
2022-08-18T14:03:48.075Z,34.52
2022-08-18T14:06:18.416Z,34.48
2022-08-18T14:08:52.200Z,34.37
2022-08-18T14:11:27.625Z,34.36
2022-08-18T14:14:01.928Z,34.18
2022-08-18T14:16:29.447Z,34.01
2022-08-18T14:19:17.824Z,34.13
2022-08-18T14:22:11.409Z,34.26
2022-08-18T14:25:00.376Z,34.43
2022-08-18T14:27:38.245Z,34.50
2022-08-18T14:30:09.338Z,34.73
2022-08-18T14:32:48.671Z,34.70
2022-08-18T14:36:04.722Z,34.62
2022-08-18T14:38:08.463Z,34.44
2022-08-18T14:40:43.008Z,34.21
2022-08-18T14:43:14.235Z,34.02
2022-08-18T14:45:48.756Z,33.79
2022-08-18T14:48:20.619Z,33.62
2022-08-18T14:50:52.834Z,33.53
2022-08-18T14:53:22.218Z,33.46
2022-08-18T14:55:53.190Z,33.37
2022-08-18T14:58:27.952Z,33.36
2022-08-18T15:01:08.224Z,33.26
2022-08-18T15:03:41.231Z,33.13
2022-08-18T15:06:08.935Z,33.15
2022-08-18T15:08:46.901Z,33.12
2022-08-18T15:11:16.849Z,33.08
2022-08-18T15:13:48.236Z,33.04
2022-08-18T15:16:16.507Z,33.17
2022-08-18T15:18:45.622Z,33.17
2022-08-18T15:21:35.745Z,33.15
2022-08-18T15:24:28.062Z,33.03
2022-08-18T15:27:03.255Z,33.09
2022-08-18T15:29:34.425Z,33.05
2022-08-18T15:32:06.154Z,32.98
2022-08-18T15:34:46.770Z,33.01
2022-08-18T15:37:19.903Z,32.89
2022-08-18T15:39:51.855Z,32.81
2022-08-18T15:42:27.045Z,32.85
2022-08-18T15:44:55.003Z,32.76
2022-08-18T15:47:25.386Z,32.67
2022-08-18T15:49:54.943Z,32.70
2022-08-18T15:52:25.873Z,32.65
2022-08-18T15:55:02.654Z,32.61
2022-08-18T15:57:39.321Z,32.54
2022-08-18T16:00:12.255Z,32.58
2022-08-18T16:02:44.749Z,32.65
2022-08-18T16:05:17.299Z,32.61
2022-08-18T16:07:46.089Z,32.64
2022-08-18T16:10:18.569Z,32.63
2022-08-18T16:12:47.134Z,32.55
2022-08-18T16:15:21.439Z,32.50
2022-08-18T16:17:54.761Z,32.44
2022-08-18T16:20:26.057Z,32.40
2022-08-18T16:22:54.230Z,32.34
2022-08-18T16:25:22.074Z,32.23
2022-08-18T16:27:49.909Z,32.12
2022-08-18T16:30:21.747Z,32.08
2022-08-18T16:32:49.588Z,32.02
2022-08-18T16:35:18.820Z,31.92
2022-08-18T16:37:47.661Z,31.83
2022-08-18T16:40:16.983Z,31.79
2022-08-18T16:42:44.777Z,31.65
2022-08-18T16:45:13.308Z,31.50
2022-08-18T16:47:41.356Z,31.54
2022-08-18T16:50:15.323Z,31.36
2022-08-18T16:52:42.838Z,31.29
2022-08-18T16:55:12.194Z,31.22
2022-08-18T16:58:02.908Z,31.17
2022-08-18T17:00:54.645Z,31.10
2022-08-18T17:03:44.863Z,31.04
2022-08-18T17:06:15.327Z,31.00
2022-08-18T17:08:44.279Z,30.91
2022-08-18T17:11:14.335Z,30.86
2022-08-18T17:13:43.609Z,30.82
2022-08-18T17:16:12.347Z,30.72
2022-08-18T17:18:43.598Z,30.62
2022-08-18T17:21:15.292Z,30.57
2022-08-18T17:23:43.062Z,30.45
2022-08-18T17:26:21.264Z,30.40
2022-08-18T17:28:54.827Z,30.34
2022-08-18T17:31:24.780Z,30.25
2022-08-18T17:33:55.364Z,30.25
2022-08-18T17:36:52.889Z,30.21
2022-08-18T17:39:28.725Z,30.08
2022-08-18T17:42:18.886Z,30.07
2022-08-18T17:44:54.228Z,29.89
2022-08-18T17:47:30.058Z,29.89
2022-08-18T17:50:28.304Z,29.83
2022-08-18T17:53:07.605Z,29.75
2022-08-18T17:56:15.349Z,29.74
2022-08-18T17:58:46.725Z,29.74
2022-08-18T18:01:15.484Z,29.63
2022-08-18T18:03:45.987Z,29.67
2022-08-18T18:06:30.191Z,29.63
2022-08-18T18:09:10.678Z,29.55
2022-08-18T18:11:42.538Z,29.53
2022-08-18T18:14:34.751Z,29.39
2022-08-18T18:17:38.835Z,29.28
2022-08-18T18:20:16.802Z,29.21
2022-08-18T18:22:46.029Z,29.16
2022-08-18T18:25:30.449Z,29.11
2022-08-18T18:28:02.531Z,29.05
2022-08-18T18:30:29.961Z,28.99
2022-08-18T18:33:14.506Z,28.95
2022-08-18T18:35:54.919Z,28.87
2022-08-18T18:38:38.269Z,28.83
2022-08-18T18:41:20.492Z,28.82
2022-08-18T18:43:51.236Z,28.76
2022-08-18T18:46:53.649Z,28.76
2022-08-18T18:49:53.443Z,28.62
2022-08-18T18:52:30.582Z,28.73
2022-08-18T18:55:10.579Z,28.67
2022-08-18T18:57:57.447Z,28.67
2022-08-18T19:00:38.135Z,28.53
2022-08-18T19:03:26.304Z,28.69
2022-08-18T19:06:14.247Z,28.63
2022-08-18T19:08:56.973Z,28.58
2022-08-18T19:11:32.206Z,28.61
2022-08-18T19:14:09.244Z,28.57
2022-08-18T19:16:45.815Z,28.57
2022-08-18T19:19:36.280Z,28.53
2022-08-18T19:22:18.914Z,28.51
2022-08-18T19:24:55.390Z,28.51
2022-08-18T19:27:34.170Z,28.45
2022-08-18T19:30:09.778Z,28.43
2022-08-18T19:32:45.600Z,28.44
2022-08-18T19:35:25.607Z,28.33
2022-08-18T19:38:30.261Z,28.40
2022-08-18T19:41:30.345Z,28.32
2022-08-18T19:44:26.185Z,28.26
2022-08-18T19:46:57.643Z,28.25
2022-08-18T19:49:42.273Z,28.11
2022-08-18T19:52:46.945Z,28.16
2022-08-18T19:55:54.117Z,28.13
2022-08-18T19:59:15.467Z,28.01
2022-08-18T20:01:52.008Z,27.98
2022-08-18T20:04:47.727Z,27.94
2022-08-18T20:07:53.327Z,27.85
2022-08-18T20:10:59.808Z,27.80
2022-08-18T20:13:36.713Z,27.68
2022-08-18T20:16:11.135Z,27.69
2022-08-18T20:18:46.147Z,27.65
2022-08-18T20:21:16.683Z,27.62
2022-08-18T20:23:55.947Z,27.56
2022-08-18T20:26:35.234Z,27.48
2022-08-18T20:29:02.575Z,27.43
2022-08-18T20:31:57.798Z,27.40
2022-08-18T20:34:28.153Z,27.30
2022-08-18T20:36:58.206Z,27.19
2022-08-18T20:39:28.742Z,27.18
2022-08-18T20:41:56.483Z,27.10
2022-08-18T20:44:29.051Z,27.17
2022-08-18T20:47:21.150Z,27.18
2022-08-18T20:50:07.350Z,27.07
2022-08-18T20:52:45.973Z,26.93
2022-08-18T20:55:26.982Z,26.91
2022-08-18T20:58:15.445Z,26.86
2022-08-18T21:00:47.870Z,26.89
2022-08-18T21:03:20.648Z,26.90
2022-08-18T21:05:55.754Z,27.01
2022-08-18T21:08:27.702Z,26.95
2022-08-18T21:10:57.192Z,26.94
2022-08-18T21:13:58.517Z,26.95
2022-08-18T21:16:39.363Z,26.98
2022-08-18T21:19:23.642Z,26.91
2022-08-18T21:21:55.421Z,26.95
2022-08-18T21:24:36.017Z,26.96
2022-08-18T21:27:07.178Z,27.03
2022-08-18T21:29:49.182Z,27.00
2022-08-18T21:32:32.403Z,27.07
2022-08-18T21:35:10.085Z,27.02
2022-08-18T21:37:41.455Z,26.96
2022-08-18T21:40:09.256Z,26.94
2022-08-18T21:42:44.037Z,26.87
2022-08-18T21:45:17.833Z,26.80
2022-08-18T21:47:56.735Z,26.76
2022-08-18T21:50:29.809Z,26.78
2022-08-18T21:53:28.251Z,26.73
2022-08-18T21:55:57.500Z,26.76
2022-08-18T21:58:34.484Z,26.70
2022-08-18T22:01:10.911Z,26.77
2022-08-18T22:04:03.289Z,26.78
2022-08-18T22:06:40.638Z,26.82
2022-08-18T22:09:29.652Z,26.79
2022-08-18T22:12:54.211Z,26.59
2022-08-18T22:15:27.366Z,26.54
2022-08-18T22:17:58.209Z,26.45
2022-08-18T22:20:32.863Z,26.40
2022-08-18T22:23:43.130Z,26.35
2022-08-18T22:26:29.761Z,26.29
2022-08-18T22:29:06.051Z,26.27
2022-08-18T22:31:38.010Z,26.26
2022-08-18T22:34:27.840Z,26.19
2022-08-18T22:37:00.965Z,26.05
2022-08-18T22:39:36.388Z,25.86
2022-08-18T22:42:05.440Z,26.05
2022-08-18T22:44:32.815Z,26.03
2022-08-18T22:47:00.089Z,26.00
2022-08-18T22:49:27.172Z,26.01
2022-08-18T22:51:55.796Z,26.01
2022-08-18T22:54:24.545Z,26.01
2022-08-18T22:56:56.709Z,26.03
2022-08-18T22:59:27.120Z,26.01
2022-08-18T23:01:57.329Z,26.04
2022-08-18T23:04:25.894Z,26.01
2022-08-18T23:06:54.691Z,25.95
2022-08-18T23:09:25.931Z,25.95
2022-08-18T23:11:54.836Z,25.81
2022-08-18T23:14:22.468Z,25.75
2022-08-18T23:16:50.083Z,25.71
2022-08-18T23:19:18.586Z,25.63
2022-08-18T23:21:46.459Z,25.57
2022-08-18T23:24:15.116Z,25.45
2022-08-18T23:26:42.654Z,25.39
2022-08-18T23:29:11.786Z,25.31
2022-08-18T23:31:39.899Z,25.36
2022-08-18T23:34:07.024Z,25.33
2022-08-18T23:36:34.394Z,25.35
2022-08-18T23:39:01.595Z,25.33
2022-08-18T23:41:28.915Z,25.29
2022-08-18T23:43:56.766Z,25.21
2022-08-18T23:46:24.943Z,25.17
2022-08-18T23:48:52.606Z,25.04
2022-08-18T23:51:38.416Z,25.03
2022-08-18T23:54:07.525Z,24.93
2022-08-18T23:56:35.393Z,24.79
2022-08-18T23:59:03.105Z,24.73
